Aeroporto :
LOGIN :

Iscrizione | Disclaimer

   EN    FR    IT 

 










Sommario :    VFR   VFR Marginale   IFR   IFR Intensivo   IFR Molto Intensivo
Visibilità : 
Base nubi : 
>= 8 km
>= 3000ft
5 / 8 km
1000 / 3000 ft
1500m / 5 km
500 / 1000 ft
800 / 1500m
200 / 500 ft
< 800m
< 200 ft
Simboli :   Temporali  Nebbia  Neve Forte  Precipitazioni Forti  Vento > 20 kt
SIGMETs :   Varie  Temporali  Ghiacco  Turbolenza  Onda orograficha  Ceneri Vulcaniche






- Altitudine del aeroporto : 15 ft
- Codice IATA : FCO


LIRF - Roma Leonardo da Vinci Fiumicino

ULTIMO METAR :
  • 070250Z 07004KT 9999 FEW015 SCT040 16/16 Q1009 NOSIG

METARs OBSOLETI :
  • 070220Z 11005KT 9999 FEW015 SCT040 17/16 Q1009 NOSIG
  • 070150Z 09006KT 9999 FEW040 17/16 Q1009 NOSIG
  • 070120Z 07005KT CAVOK 17/16 Q1009 NOSIG
  • 070050Z 09004KT CAVOK 17/16 Q1009 NOSIG
  • 070020Z 11006KT CAVOK 18/17 Q1009 NOSIG
  • 062350Z 10005KT CAVOK 17/16 Q1009 NOSIG

TAF TAF LIRF
Valido dal 07 a 00 ore il 08 a 06 ore UTC


062300Z 0700/0806 VRB05KT CAVOK
BECMG 0705/0707 16015KT
TEMPO 0712/0718 16018G28KT
BECMG 0719/0721 VRB05KT
TEMPO 0721/0806 4000 TSRA



MetMap, La meteo Aeronautica in un colpo d'occhio ! - Copyright ORBIFLY Dicembre 2007 - Disclaimer

ORBIFLY MET'MAP TEAM :

Programmazione e sviluppo : Alexandra Zaïnal
Concezione : Baudouin d'Aumeries
Aiuto per la programmazione : Marc-Olivier Méhu
Supporto tecnico e logistico : Manuel Goepfert
Aiuto per la traduzione : Arnaldo La Scala

Contatto : metmap@orbifly.com




FONTI E CREDITI :

   NOAA